Tiempo atmosférico en la estación meteorológica de Los Tojos, Bárcena Mayor, Cantabria (455 m.)



Fecha
DESCASC
Temp. máxima en grados centígrados (hora)
DESCASC
Temp. mínima en grados centígrados (hora)
DESCASC
Temp. media en grados centígrados
DESCASC
Racha de viento máxima en m/sg (hora)
DESCASC
Velocidad máxima media en intervalos de 10 minutos(hora)
DESCASC
Precipitaciones diarias en mm
DESCASC
Precipitaciones de 00:00 a 06:00 en mm
DESCASC
Precipitaciones de 06:00 a 12:00 en mm
DESCASC
Precipitaciones de 12:00 a 18:00 en mm
DESCASC
Precipitaciones de 18:00 a 24:00 en mm
DESCASC
14-07-2019 25.6 (16:20) 14.1 (00:00) 19.9 6.67 (14:40) 3.06 (18:20) 0 0 0 0 0
13-07-2019 24.9 (17:40) 11 (00:00) 17.9 6.11 (20:10) 3.06 (20:00) 0.2 0 0 0 0.2
12-07-2019 27.2 (16:30) 11.6 (00:00) 19.4 5.28 (14:10) 3.06 (13:50) 0 0 0 0 0
11-07-2019 27.7 (15:10) 10.7 (00:00) 19.2 5.83 (16:00) 2.78 (16:00) 0 0 0 0 0
10-07-2019 26.2 (15:30) 7.6 (00:00) 16.9 7.22 (16:00) 3.33 (16:00) 0 0 0 0 0
09-07-2019 22 (15:30) 14.6 (00:00) 18.3 8.06 (14:50) 3.61 (14:50) 2.6 2.4 0.2 0 0
08-07-2019 20.4 (13:10) 14.7 (00:00) 17.5 5.28 (14:30) 2.78 (14:10) 13.2 1 2.8 0 9.4
07-07-2019 21.6 (14:40) 12.7 (00:00) 17.2 5.83 (12:40) 3.06 (12:10) 0.4 0 0 0 0.4
06-07-2019 24.7 (13:10) 16.9 (00:00) 20.8 6.39 (12:50) 3.33 (13:20) 0.4 0.2 0 0 0.2
05-07-2019 27.4 (16:40) 13.1 (00:00) 20.3 5.28 (12:20) 2.78 (11:50) 1 0 1 0 0
04-07-2019 30.6 (17:10) 13.2 (00:00) 21.9 9.44 (19:20) 3.89 (19:40) 9.2 1.8 0 0 7.4
03-07-2019 25.6 (15:10) 14.9 (00:00) 20.3 6.94 (16:20) 3.33 (16:10) 3.6 0 0 0 3.6
02-07-2019 19.8 (13:20) 14.5 (04:50) 17.1 5 (16:20) 1.94 (14:20) 0.4 0.2 0.2 0 0
01-07-2019 18.8 (12:00) 14.8 (06:30) 16.8 5.28 (17:00) 2.5 (15:30) 0.4 0 0 0.4 0
30-06-2019 24.7 (14:20) 10.3 (00:00) 17.5 6.39 (16:20) 3.61 (16:10) 0.4 0 0 0 0.4
29-06-2019 26.4 (15:40) 12.8 (00:00) 19.6 6.67 (18:10) 3.61 (18:00) 0 0 0 0 0
28-06-2019 27.4 (15:20) 14.2 (00:00) 20.8 7.22 (16:50) 3.33 (16:50) 0 0 0 0 0
27-06-2019 36.5 (17:20) 12.5 (00:00) 24.5 10 (13:20) 4.17 (18:40) 0 0 0 0 0
26-06-2019 34.4 (17:10) 14.8 (00:00) 24.6 9.17 (11:30) 3.89 (12:10) 0.8 0.8 0 0 0
25-06-2019 22.1 (14:40) 14.3 (00:00) 18.2 6.67 (15:00) 3.61 (14:50) 0.8 0.6 0.2 0 0
24-06-2019 22.6 (15:10) 13.5 (00:00) 18.1 5.56 (15:10) 2.78 (15:20) 0 0 0 0 0
23-06-2019 22.6 (13:40) 13.6 (00:00) 18.1 5.83 (18:50) 2.5 (14:10) 0 0 0 0 0
22-06-2019 27.8 (17:00) 8.9 (00:00) 18.3 6.94 (05:20) 2.78 (05:20) 0 0 0 0 0
21-06-2019 19.2 (15:30) 11.9 (00:00) 15.6 4.72 (15:40) 2.22 (17:40) 5.4 3.8 1.6 0 0
20-06-2019 15.3 (15:00) 12.9 (00:00) 14.1 3.61 (19:30) 1.67 (19:20) 7.2 0.8 0.8 2.6 3
19-06-2019 20.5 (13:10) 9.7 (00:00) 15.1 5 (15:50) 2.5 (13:50) -- 0 0 -- 2
18-06-2019 29.3 (16:10) 9.6 (00:00) 19.4 11.39 (14:40) 4.17 (17:20) 0 0 0 0 0
17-06-2019 27.5 (14:00) 7.4 (00:00) 17.5 7.5 (13:40) 4.17 (15:20) 0 0 0 0 0
16-06-2019 23.4 (16:00) 4.2 (00:00) 13.8 5.83 (14:20) 3.33 (14:00) 0 0 0 0 0

Gráficas

Temp. máximas Temp. mínimas Temp. medias Precipitaciones Rachas de viento máximas Velocidades máximas media en intervalos de 10 minutos

Datos horarios

Fecha y hora oficial Temperatura (ºC) Velocidad del viento (km/h) Dirección del viento Racha (km/h) Dirección de racha Precipitación (mm) Presión (hPa) Tendencia (hPa) Humedad (%)
2019-07-15 23:00:00 14.7 0 Calma 3 Este 0 -- -- 83
2019-07-15 22:00:00 17.2 0 Calma 4 Sudeste 0 -- -- 75
2019-07-15 21:00:00 19.7 3 Oeste 14 Oeste 0 -- -- 65
2019-07-15 20:00:00 21 5 Sudoeste 15 Oeste 0 -- -- 59
2019-07-15 19:00:00 21.9 6 Sudeste 18 Este 0 -- -- 64
2019-07-15 18:00:00 22.7 6 Sur 19 Sur 0 -- -- 64
2019-07-15 17:00:00 23.3 5 Sur 18 Este 0 -- -- 64
2019-07-15 16:00:00 25.6 5 Este 21 Este 0 -- -- 60
2019-07-15 15:00:00 25.2 7 Nordeste 24 Este 0 -- -- 50
2019-07-15 14:00:00 25 4 Sur 20 Sudoeste 0 -- -- 48
2019-07-15 13:00:00 24.4 6 Nordeste 22 Oeste 0 -- -- 47
2019-07-15 12:00:00 22.8 7 Sudeste 16 Sudeste 0 -- -- 53
2019-07-15 11:00:00 19.7 4 Nordeste 10 Sudoeste 0 -- -- 73
2019-07-15 10:00:00 15 2 Norte 4 Nordeste 0 -- -- 96
2019-07-15 09:00:00 11.5 0 Calma 4 Este 0 -- -- 100
2019-07-15 08:00:00 8.8 0 Calma 3 Nordeste 0 -- -- 100
2019-07-15 07:00:00 8.8 0 Calma 2 Nordeste 0 -- -- 100
2019-07-15 06:00:00 9.3 0 Calma 2 Este 0 -- -- 100
2019-07-15 05:00:00 9.8 2 Este 3 Este 0 -- -- 99
2019-07-15 04:00:00 10.4 0 Calma 3 Nordeste 0 -- -- 99
2019-07-15 03:00:00 11.1 0 Calma 3 Este 0 -- -- 98
2019-07-15 02:00:00 11.9 0 Calma 4 Este 0 -- -- 97
2019-07-15 01:00:00 12.9 0 Calma 3 Norte 0 -- -- 95
2019-07-15 00:00:00 14.1 0 Calma 3 Este 0 -- -- 93
2019-07-14 23:00:00 15.7 0 Calma 3 Sur 0 -- -- 90
2019-07-14 22:00:00 17.9 0 Calma 4 Oeste 0 -- -- 84
2019-07-14 21:00:00 20.7 2 Oeste 10 Oeste 0 -- -- 74
2019-07-14 20:00:00 23.1 5 Oeste 14 Oeste 0 -- -- 65
2019-07-14 19:00:00 22.2 7 Oeste 22 Oeste 0 -- -- 71
2019-07-14 18:00:00 23 6 Oeste 22 Oeste 0 -- -- 71
2019-07-14 17:00:00 23.5 8 Sudeste 17 Noroeste 0 -- -- 66
2019-07-14 16:00:00 24.3 6 Sudeste 14 Sudeste 0 -- -- 66
2019-07-14 15:00:00 24.7 11 Este 24 Este 0 -- -- 62
2019-07-14 14:00:00 24.4 3 Nordeste 14 Este 0 -- -- 63
2019-07-14 13:00:00 25 4 Sudeste 10 Sudoeste 0 -- -- 57
2019-07-14 12:00:00 22.9 4 Sur 8 Nordeste 0 -- -- 69
2019-07-14 11:00:00 20.5 3 Nordeste 5 Nordeste 0 -- -- 79
2019-07-14 10:00:00 18.7 2 Nordeste 5 Este 0 -- -- 89
2019-07-14 09:00:00 17 2 Sudeste 4 Sur 0 -- -- 99
2019-07-14 08:00:00 16 0 Calma 2 Noroeste 0 -- -- 100
2019-07-14 07:00:00 15.8 0 Calma 6 Noroeste 0 -- -- 99
2019-07-14 06:00:00 16.4 3 Oeste 6 Oeste 0 -- -- 100
2019-07-14 05:00:00 16.6 0 Calma 5 Sudoeste 0 -- -- 98
2019-07-14 04:00:00 17.3 0 Calma 5 Sudeste 0 -- -- 99
2019-07-14 03:00:00 17.2 0 Calma 5 Oeste 0 -- -- 99
2019-07-14 02:00:00 17.5 0 Calma 6 Sudeste 0 -- -- 98
2019-07-14 01:00:00 17.8 0 Calma 4 Sur 0 -- -- 98
2019-07-14 00:00:00 17.9 3 Oeste 9 Sudoeste 0.2 -- -- 96
2019-07-13 23:00:00 18.1 3 Oeste 10 Noroeste 0 -- -- 97
2019-07-13 22:00:00 18.3 2 Oeste 20 Oeste 0 -- -- 96
2019-07-13 21:00:00 19.6 9 Noroeste 22 Oeste 0 -- -- 88
2019-07-13 20:00:00 20.2 11 Oeste 21 Noroeste 0 -- -- 85
2019-07-13 19:00:00 21.7 5 Oeste 17 Noroeste 0 -- -- 81
2019-07-13 18:00:00 24.5 9 Noroeste 16 Noroeste 0 -- -- 72
2019-07-13 17:00:00 23.9 6 Noroeste 14 Noroeste 0 -- -- 73
2019-07-13 16:00:00 23.3 6 Noroeste 11 Noroeste 0 -- -- 72
2019-07-13 15:00:00 22.4 5 Noroeste 11 Noroeste 0 -- -- 72
2019-07-13 14:00:00 21.4 6 Noroeste 12 Norte 0 -- -- 72
2019-07-13 13:00:00 20.6 5 Noroeste 13 Noroeste 0 -- -- 70
2019-07-13 12:00:00 20.1 5 Noroeste 10 Oeste 0 -- -- 73
2019-07-13 11:00:00 18.9 3 Oeste 6 Oeste 0 -- -- 75
2019-07-13 10:00:00 15.9 2 Sudeste 7 Este 0 -- -- 78
2019-07-13 09:00:00 12.8 0 Calma 5 Este 0 -- -- 94
2019-07-13 08:00:00 11 0 Calma 4 Este 0 -- -- 98
2019-07-13 07:00:00 11.3 2 Sudeste 4 Sudeste 0 -- -- 97
2019-07-13 06:00:00 12.4 0 Calma 4 Sur 0 -- -- 97
2019-07-13 05:00:00 13.6 0 Calma 3 Este 0 -- -- 98
2019-07-13 04:00:00 14.2 0 Calma 3 Este 0 -- -- 98
2019-07-13 03:00:00 14.2 2 Sur -- -- 0 -- -- 99
2019-07-13 02:00:00 14 0 Calma 4 Sudeste 0 -- -- 97
2019-07-13 01:00:00 14.7 0 Calma 3 Este 0 -- -- 95
2019-07-13 00:00:00 15.6 0 Calma 2 Sudeste 0 -- -- 92
2019-07-12 23:00:00 16.9 0 Calma 3 Sur 0 -- -- 87
2019-07-12 22:00:00 18.7 2 Sudeste 10 Noroeste 0 -- -- 81
2019-07-12 21:00:00 21.1 4 Noroeste 15 Noroeste 0 -- -- 72
2019-07-12 20:00:00 23.3 7 Noroeste 17 Oeste 0 -- -- 65
2019-07-12 19:00:00 25.3 7 Noroeste 18 Noroeste 0 -- -- 62
2019-07-12 18:00:00 26.8 7 Noroeste 18 Noroeste 0 -- -- 60
2019-07-12 17:00:00 27.1 8 Noroeste 19 Noroeste 0 -- -- 59
2019-07-12 16:00:00 26.7 10 Noroeste 19 Noroeste 0 -- -- 63
2019-07-12 15:00:00 26.5 9 Noroeste 19 Noroeste 0 -- -- 63
2019-07-12 14:00:00 25.9 9 Noroeste 18 Noroeste -- -- -- 66
2019-07-12 13:00:00 25.3 8 Noroeste 17 Noroeste -- -- -- 70
2019-07-12 12:00:00 23.8 9 Noroeste 16 Noroeste 0 -- -- 77
2019-07-12 11:00:00 20.8 7 Noroeste 11 Noroeste 0 -- -- 82
2019-07-12 10:00:00 17.1 2 Norte 5 Este 0 -- -- 88
2019-07-12 09:00:00 13.9 2 Este 4 Nordeste 0 -- -- 100
2019-07-12 08:00:00 11.7 0 Calma 4 Este 0 -- -- 100
2019-07-12 07:00:00 11.7 0 Calma 3 Este 0 -- -- 100
2019-07-12 06:00:00 12.1 2 Este 4 Este 0 -- -- 99
2019-07-12 05:00:00 12.5 2 Sudeste 4 Nordeste 0 -- -- 99
2019-07-12 04:00:00 13.1 0 Calma 3 Este 0 -- -- 98
2019-07-12 03:00:00 13.7 0 Calma 3 Este 0 -- -- 97
2019-07-12 02:00:00 14.4 0 Calma 2 Este 0 -- -- 95
2019-07-12 01:00:00 15.1 0 Calma 3 Este 0 -- -- 96
2019-07-12 00:00:00 16.1 0 Calma 2 Sudoeste 0 -- -- 94
2019-07-11 23:00:00 17.5 0 Calma 3 Sur 0 -- -- 88
2019-07-11 22:00:00 19.5 2 Sur 9 Noroeste 0 -- -- 82
2019-07-11 21:00:00 21.8 4 Oeste 14 Noroeste 0 -- -- 75
2019-07-11 20:00:00 24.8 8 Noroeste 15 Noroeste 0 -- -- 67
2019-07-11 19:00:00 26.7 7 Noroeste 17 Noroeste 0 -- -- 68
2019-07-11 18:00:00 26.7 9 Noroeste 20 Noroeste 0 -- -- 69
2019-07-11 17:00:00 27.2 8 Noroeste 20 Noroeste 0 -- -- 71
2019-07-11 16:00:00 27.6 10 Noroeste 21 Noroeste 0 -- -- 71
2019-07-11 15:00:00 27.6 8 Noroeste 18 Noroeste 0 -- -- 71
2019-07-11 14:00:00 27 9 Noroeste 16 Noroeste 0 -- -- 70
2019-07-11 13:00:00 26 8 Noroeste 16 Noroeste 0 -- -- 69
2019-07-11 12:00:00 23.8 8 Noroeste 15 Noroeste 0 -- -- 70
2019-07-11 11:00:00 20.6 4 Norte 8 Norte 0 -- -- 81
2019-07-11 10:00:00 16.9 0 Calma 4 Noroeste 0 -- -- 91
2019-07-11 09:00:00 13.8 2 Nordeste 6 Este 0 -- -- 100
2019-07-11 08:00:00 11 0 Calma 4 Este 0 -- -- 100
2019-07-11 07:00:00 10.7 0 Calma 4 Este 0 -- -- 100
2019-07-11 06:00:00 11.1 2 Sudeste 3 Este 0 -- -- 100
2019-07-11 05:00:00 11.4 2 Sudeste 4 Este 0 -- -- 100
2019-07-11 04:00:00 11.7 0 Calma 4 Sudeste 0 -- -- 99
2019-07-11 03:00:00 12.2 0 Calma 4 Este 0 -- -- 99
2019-07-11 02:00:00 12.8 0 Calma 4 Este 0 -- -- 98
2019-07-11 01:00:00 13.6 0 Calma 4 Este 0 -- -- 96
2019-07-11 00:00:00 14.5 0 Calma 3 Nordeste 0 -- -- 94
2019-07-10 23:00:00 15.8 0 Calma 3 Este 0 -- -- 91
2019-07-10 22:00:00 18.1 0 Calma 3 Oeste 0 -- -- 83
2019-07-10 21:00:00 21.3 0 Calma 13 Noroeste 0 -- -- 75
2019-07-10 20:00:00 24.4 5 Noroeste 13 Oeste 0 -- -- 58
2019-07-10 19:00:00 25.1 7 Oeste 17 Oeste 0 -- -- 58
2019-07-10 18:00:00 25.8 6 Noroeste 15 Noroeste 0 -- -- 64
2019-07-10 17:00:00 23.9 7 Oeste 22 Noroeste 0 -- -- 66
2019-07-10 16:00:00 25.6 12 Oeste 26 Oeste 0 -- -- 65
2019-07-10 15:00:00 25.7 9 Oeste 22 Oeste 0 -- -- 53
2019-07-10 14:00:00 25.5 4 Este 13 Este 0 -- -- 48
2019-07-10 13:00:00 24.1 4 Oeste 9 Norte 0 -- -- 53
2019-07-10 12:00:00 21.5 5 Noroeste 10 Noroeste 0 -- -- 56
2019-07-10 11:00:00 18 3 Nordeste 6 Este 0 -- -- 72
2019-07-10 10:00:00 13.9 3 Nordeste 6 Nordeste 0 -- -- 85
2019-07-10 09:00:00 9.9 0 Calma 5 Este 0 -- -- 100
2019-07-10 08:00:00 7.6 0 Calma 3 Este 0 -- -- 100
2019-07-10 07:00:00 7.8 0 Calma 4 Sur 0 -- -- 100
2019-07-10 06:00:00 8.5 0 Calma 5 Sur 0 -- -- 98
2019-07-10 05:00:00 9.5 3 Sudeste 6 Sur 0 -- -- 98
2019-07-10 04:00:00 10.6 2 Sur 8 Sur 0 -- -- 97
2019-07-10 03:00:00 12.4 0 Calma 4 Sur 0 -- -- 93
2019-07-10 02:00:00 13.5 0 Calma 4 Noroeste 0 -- -- 93
2019-07-10 01:00:00 14.2 0 Calma 4 Este 0 -- -- 98
2019-07-10 00:00:00 14.6 0 Calma 2 Sudeste 0 -- -- 97
2019-07-09 23:00:00 15.3 0 Calma 2 Oeste 0 -- -- 95
2019-07-09 22:00:00 16.5 0 Calma 3 Oeste 0 -- -- 90
2019-07-09 21:00:00 18.2 3 Oeste 11 Noroeste 0 -- -- 84
2019-07-09 20:00:00 19.1 5 Noroeste 17 Noroeste 0 -- -- 80
2019-07-09 19:00:00 19.8 8 Oeste 21 Sudoeste 0 -- -- 77
2019-07-09 18:00:00 20.7 9 Oeste 23 Sudoeste 0 -- -- 73
2019-07-09 17:00:00 21 8 Oeste 22 Oeste 0 -- -- 74
2019-07-09 16:00:00 21.5 12 Oeste 26 Sudoeste 0 -- -- 74
2019-07-09 15:00:00 21.6 12 Oeste 29 Oeste 0 -- -- 73
2019-07-09 14:00:00 21.5 9 Oeste 23 Oeste 0 -- -- 77
2019-07-09 13:00:00 20.2 6 Oeste 17 Oeste 0 -- -- 73
2019-07-09 12:00:00 20.3 6 Oeste 14 Oeste 0 -- -- 76
2019-07-09 11:00:00 18.1 5 Noroeste 10 Noroeste 0 -- -- 88
2019-07-09 10:00:00 16.6 5 Noroeste 8 Noroeste 0 -- -- 99
2019-07-09 09:00:00 15.6 2 Oeste 9 Oeste 0 -- -- 100
2019-07-09 08:00:00 15.3 0 Calma 6 Este 0 -- -- 100
2019-07-09 07:00:00 15.3 2 Oeste 7 Noroeste 0.2 -- -- 100
2019-07-09 06:00:00 15.4 0 Calma 5 Noroeste 1.2 -- -- 100
2019-07-09 05:00:00 15.5 0 Calma 4 Noroeste 0.2 -- -- 100
2019-07-09 04:00:00 15.4 0 Calma 6 Sur 0.2 -- -- 100
2019-07-09 03:00:00 15.3 0 Calma 3 Oeste 0 -- -- 100
2019-07-09 02:00:00 15.5 0 Calma 4 Este 0.2 -- -- 100
2019-07-09 01:00:00 15.9 0 Calma 5 Sudoeste 0.6 -- -- 100
2019-07-09 00:00:00 16.1 2 Oeste 8 Oeste 1.4 -- -- 100
2019-07-08 23:00:00 16.4 0 Calma 13 Oeste 2.2 -- -- 100
2019-07-08 22:00:00 16.8 0 Calma 12 Sudoeste 1.8 -- -- 100
2019-07-08 21:00:00 17.1 2 Sudoeste 6 Sudoeste 1.8 -- -- 100
2019-07-08 20:00:00 17.3 0 Calma 13 Oeste 0.2 -- -- 99
2019-07-08 19:00:00 17.7 3 Oeste 14 Norte 2 -- -- 97
2019-07-08 18:00:00 18.5 8 Oeste 14 Sudoeste 0 -- -- 91
2019-07-08 17:00:00 19.3 5 Oeste 11 Oeste 0 -- -- 87
2019-07-08 16:00:00 18.9 3 Oeste 10 Noroeste 0 -- -- 90
2019-07-08 15:00:00 18.2 3 Oeste 19 Oeste 0 -- -- 94
2019-07-08 14:00:00 19.9 4 Norte 13 Noroeste 0 -- -- 88
2019-07-08 13:00:00 20.3 6 Noroeste 13 Noroeste 0 -- -- 86
2019-07-08 12:00:00 17.8 3 Noroeste 11 Oeste 0 -- -- 100
2019-07-08 11:00:00 16.5 4 Oeste 8 Este 0.2 -- -- 100
2019-07-08 10:00:00 15.7 3 Sudoeste 6 Sur 0.2 -- -- 100
2019-07-08 09:00:00 15.1 2 Sudoeste 6 Oeste 1.6 -- -- 100
2019-07-08 08:00:00 14.8 3 Oeste 7 Sur 0.8 -- -- 100
2019-07-08 07:00:00 14.8 3 Sur 5 Sur 0 -- -- 100
2019-07-08 06:00:00 14.9 2 Noroeste 4 Oeste 0 -- -- 100
2019-07-08 05:00:00 14.8 0 Calma 6 Este 0 -- -- 100
2019-07-08 04:00:00 15.2 3 Oeste 11 Sudoeste 0.2 -- -- 100
2019-07-08 03:00:00 15.5 3 Oeste 9 Noroeste 0.8 -- -- 100
2019-07-08 02:00:00 15.6 3 Noroeste 6 Noroeste 0 -- -- 100
2019-07-08 01:00:00 15.6 3 Oeste 5 Oeste 0 -- -- 100
2019-07-08 00:00:00 15.7 0 Calma 4 Oeste 0.2 -- -- 100
2019-07-07 23:00:00 15.8 2 Noroeste 8 Noroeste 0 -- -- 100
2019-07-07 22:00:00 16.2 4 Oeste 8 Noroeste 0 -- -- 99
2019-07-07 21:00:00 16.6 4 Noroeste 8 Noroeste 0.2 -- -- 98
2019-07-07 20:00:00 17 4 Noroeste 9 Noroeste 0 -- -- 97
2019-07-07 19:00:00 17.4 4 Noroeste 8 Oeste 0 -- -- 96
2019-07-07 18:00:00 17.6 3 Noroeste 12 Noroeste 0 -- -- 95
2019-07-07 17:00:00 18.3 7 Noroeste 13 Oeste 0 -- -- 91
2019-07-07 16:00:00 19.4 7 Oeste 14 Sudoeste 0 -- -- 87
2019-07-07 15:00:00 21.5 8 Noroeste 17 Noroeste 0 -- -- 81
2019-07-07 14:00:00 20.5 9 Noroeste 17 Noroeste 0 -- -- 85
2019-07-07 13:00:00 20.1 8 Noroeste 21 Norte 0 -- -- 85
2019-07-07 12:00:00 19.8 10 Noroeste 18 Noroeste 0 -- -- 86
2019-07-07 11:00:00 17.8 4 Norte 9 Oeste 0 -- -- 94
2019-07-07 10:00:00 15.3 4 Nordeste 8 Este 0 -- -- 99
2019-07-07 09:00:00 14 3 Norte 5 Noroeste 0 -- -- 100
2019-07-07 08:00:00 13.2 2 Este 5 Nordeste 0 -- -- 100
2019-07-07 07:00:00 12.8 0 Calma 4 Este 0 -- -- 100
2019-07-07 06:00:00 13.1 0 Calma 6 Este 0 -- -- 98
2019-07-07 05:00:00 14 3 Este 6 Este 0 -- -- 98
2019-07-07 04:00:00 14.5 3 Este 5 Este 0 -- -- 98
2019-07-07 03:00:00 15 0 Calma 3 Este 0 -- -- 99
2019-07-07 02:00:00 15.3 0 Calma 2 Este 0 -- -- 98
2019-07-07 01:00:00 16 0 Calma 2 Sur 0 -- -- 98
2019-07-07 00:00:00 17 0 Calma 2 Sur 0 -- -- 98
2019-07-06 23:00:00 17.2 0 Calma 4 Oeste 0 -- -- 99
2019-07-06 22:00:00 17.2 0 Calma 8 Noroeste 0 -- -- 99
2019-07-06 21:00:00 17.6 3 Oeste 6 Oeste 0 -- -- 97
2019-07-06 20:00:00 17.6 2 Oeste 8 Oeste 0.2 -- -- 97
2019-07-06 19:00:00 17.9 3 Oeste 9 Oeste 0 -- -- 96
2019-07-06 18:00:00 18.7 6 Noroeste 12 Noroeste 0 -- -- 94
2019-07-06 17:00:00 19.1 3 Noroeste 14 Noroeste 0 -- -- 93
2019-07-06 16:00:00 20.2 7 Noroeste 20 Norte 0 -- -- 88
2019-07-06 15:00:00 22.1 8 Noroeste 16 Noroeste 0 -- -- 82
2019-07-06 14:00:00 23.6 8 Noroeste 21 Noroeste 0 -- -- 79
2019-07-06 13:00:00 24.5 10 Noroeste 23 Noroeste 0 -- -- 78
2019-07-06 12:00:00 23.1 7 Noroeste 15 Noroeste 0 -- -- 77
2019-07-06 11:00:00 20.7 5 Norte 9 Norte 0 -- -- 86
2019-07-06 10:00:00 18.4 0 Calma 5 Noroeste 0 -- -- 93
2019-07-06 09:00:00 17.2 0 Calma 9 Noroeste 0 -- -- 99
2019-07-06 08:00:00 17 0 Calma 4 Sudoeste 0 -- -- 99
2019-07-06 07:00:00 17 0 Calma 3 Noroeste 0 -- -- 99
2019-07-06 06:00:00 17.1 2 Noroeste 5 Noroeste 0 -- -- 99
2019-07-06 05:00:00 17.3 2 Oeste 4 Norte 0.2 -- -- 99
2019-07-06 04:00:00 17.5 0 Calma 8 Oeste 0 -- -- 98
2019-07-06 03:00:00 17.7 5 Oeste 10 Oeste 0 -- -- 99
2019-07-06 02:00:00 18.2 4 Noroeste 9 Noroeste 0 -- -- 99
2019-07-06 01:00:00 18.7 3 Noroeste 10 Noroeste 0 -- -- 97
2019-07-06 00:00:00 19.3 0 Calma 11 Noroeste 0 -- -- 96
2019-07-05 23:00:00 19.6 3 Noroeste 7 Norte 0 -- -- 95
2019-07-05 22:00:00 20.6 0 Calma 8 Norte 0 -- -- 91
2019-07-05 21:00:00 21.1 4 Noroeste 12 Norte 0 -- -- 89
2019-07-05 20:00:00 21.8 6 Noroeste 15 Noroeste 0 -- -- 87
2019-07-05 19:00:00 23.1 8 Noroeste 17 Noroeste 0 -- -- 84
2019-07-05 18:00:00 25.7 7 Noroeste 18 Noroeste 0 -- -- 79
2019-07-05 17:00:00 27.4 9 Noroeste 18 Noroeste 0 -- -- 73
2019-07-05 16:00:00 26.7 6 Oeste 14 Oeste 0 -- -- 70
2019-07-05 15:00:00 25.8 4 Oeste 14 Noroeste 0 -- -- 77
2019-07-05 14:00:00 24.4 5 Oeste 14 Noroeste 0 -- -- 76
2019-07-05 13:00:00 23.8 5 Norte 19 Noroeste 0 -- -- 77
2019-07-05 12:00:00 22.6 9 Noroeste 17 Noroeste 0 -- -- 80
2019-07-05 11:00:00 19.9 6 Noroeste 13 Noroeste 0 -- -- 90
2019-07-05 10:00:00 17.6 0 Calma 4 Este 0 -- -- 100
2019-07-05 09:00:00 14.8 4 Este 7 Este 0 -- -- 100
2019-07-05 08:00:00 13.5 3 Este 6 Este 0 -- -- 100
2019-07-05 07:00:00 13.4 4 Sur 8 Norte 1 -- -- 100
2019-07-05 06:00:00 13.2 3 Este 5 Este 0 -- -- 100
2019-07-05 05:00:00 13.7 5 Sur 9 Sur 0 -- -- 100
2019-07-05 04:00:00 14 2 Este 5 Sur 0 -- -- 100
2019-07-05 03:00:00 14.2 2 Este 9 Este 0 -- -- 100
2019-07-05 02:00:00 14.3 0 Calma 4 Sur 0 -- -- 99
2019-07-05 01:00:00 15.1 2 Sur 6 Sur 0 -- -- 99
2019-07-05 00:00:00 15.5 2 Oeste 9 Sur 0 -- -- 99
2019-07-04 23:00:00 15.8 4 Sur 8 Sur 0 -- -- 98
2019-07-04 22:00:00 16.6 3 Sudeste 15 Este 0 -- -- 96
2019-07-04 21:00:00 16.9 3 Este 16 Este 0.2 -- -- 96
2019-07-04 20:00:00 17.3 5 Sudeste 34 Este 6.2 -- -- 91
2019-07-04 19:00:00 23.9 3 Oeste 13 Sudoeste 1 -- -- 91
2019-07-04 18:00:00 26.5 2 Sur 12 Oeste 0 -- -- 80
2019-07-04 17:00:00 30.5 4 Sur 8 Sudoeste 0 -- -- 55
2019-07-04 16:00:00 29.9 2 Sudoeste 12 Noroeste 0 -- -- 70
2019-07-04 15:00:00 29.1 8 Noroeste 17 Este 0 -- -- 67
2019-07-04 14:00:00 28.8 4 Norte 18 Este 0 -- -- 62
2019-07-04 13:00:00 28.8 4 Este 22 Nordeste 0 -- -- 56
2019-07-04 12:00:00 27.1 8 Nordeste 21 Nordeste 0 -- -- 62
2019-07-04 11:00:00 24.3 9 Este 25 Este 0 -- -- 72
2019-07-04 10:00:00 20.1 6 Sudeste 18 Sur 0 -- -- 100
2019-07-04 09:00:00 16.5 0 Calma 5 Noroeste 0 -- -- 100
2019-07-04 08:00:00 13.4 0 Calma 4 Nordeste 0 -- -- 100
2019-07-04 07:00:00 13.2 0 Calma 3 Este 0 -- -- 100
2019-07-04 06:00:00 13.5 3 Sudeste 5 Este 0 -- -- 100
2019-07-04 05:00:00 14.1 0 Calma 5 Sudeste 0 -- -- 100
2019-07-04 04:00:00 14.8 0 Calma 5 Sur 0 -- -- 100
2019-07-04 03:00:00 15.5 2 Sudeste 6 Sur 1.8 -- -- 100
2019-07-04 02:00:00 15.5 2 Sudeste 5 Sur 0 -- -- 100
2019-07-04 01:00:00 16.1 2 Oeste 4 Este 0 -- -- 100
2019-07-04 00:00:00 16.4 0 Calma 10 Sur 0.2 -- -- 100
2019-07-03 23:00:00 16.8 5 Este 15 Sudoeste 0.8 -- -- 99
2019-07-03 22:00:00 17.3 4 Sur 15 Sudoeste 1.2 -- -- 97
2019-07-03 21:00:00 18.4 3 Sudoeste 9 Oeste 0.6 -- -- 97
2019-07-03 20:00:00 19.1 3 Sudoeste 23 Nordeste 0.4 -- -- 97
2019-07-03 19:00:00 19.3 4 Noroeste 21 Oeste 0.4 -- -- 96
2019-07-03 18:00:00 20 5 Noroeste 20 Noroeste 0 -- -- 89
2019-07-03 17:00:00 23.2 8 Noroeste 25 Noroeste 0 -- -- 79
2019-07-03 16:00:00 25 11 Noroeste 23 Noroeste 0 -- -- 74
2019-07-03 15:00:00 25.3 10 Noroeste 22 Noroeste 0 -- -- 74
2019-07-03 14:00:00 24.1 7 Noroeste 15 Noroeste 0 -- -- 77
2019-07-03 13:00:00 21.5 8 Noroeste 17 Norte 0 -- -- 81
2019-07-03 12:00:00 20.9 8 Norte 13 Noroeste 0 -- -- 81
2019-07-03 11:00:00 18.9 6 Noroeste 14 Noroeste 0 -- -- 87
2019-07-03 10:00:00 17.6 5 Norte 8 Norte 0 -- -- 88
2019-07-03 09:00:00 15.9 0 Calma 7 Este 0 -- -- 93
2019-07-03 08:00:00 14.9 0 Calma 7 Este 0 -- -- 97
2019-07-03 07:00:00 15 0 Calma 3 Oeste 0 -- -- 99
2019-07-03 06:00:00 15.5 0 Calma 3 Sudoeste 0 -- -- 100
2019-07-03 05:00:00 15.5 0 Calma 4 Oeste 0 -- -- 99
2019-07-03 04:00:00 15.6 0 Calma 2 Este 0 -- -- 99
2019-07-03 03:00:00 15.6 0 Calma 3 Sudoeste 0 -- -- 99
2019-07-03 02:00:00 15.7 0 Calma 4 Noroeste 0 -- -- 98
2019-07-03 01:00:00 15.7 2 Oeste 8 Oeste 0 -- -- 98
2019-07-03 00:00:00 16.1 3 Noroeste 8 Norte 0 -- -- 97
2019-07-02 23:00:00 16.5 2 Noroeste 7 Noroeste 0 -- -- 95
2019-07-02 22:00:00 17 3 Noroeste 5 Noroeste 0 -- -- 92
2019-07-02 21:00:00 17.4 2 Oeste 7 Noroeste 0 -- -- 89
2019-07-02 20:00:00 17.5 3 Noroeste 8 Noroeste 0 -- -- 91
2019-07-02 19:00:00 17.3 3 Noroeste 8 Noroeste 0 -- -- 92
2019-07-02 18:00:00 17 3 Oeste 10 Oeste 0 -- -- 93
2019-07-02 17:00:00 17.3 5 Oeste 18 Oeste 0 -- -- 89
2019-07-02 16:00:00 18.9 7 Noroeste 14 Noroeste 0 -- -- 83
2019-07-02 15:00:00 19.2 7 Noroeste 15 Norte 0 -- -- 82
2019-07-02 14:00:00 19.6 5 Noroeste 10 Noroeste 0 -- -- 80
2019-07-02 13:00:00 19.5 4 Noroeste 10 Oeste 0 -- -- 79
2019-07-02 12:00:00 19 3 Norte 5 Este 0 -- -- 84
2019-07-02 11:00:00 17.7 0 Calma 5 Noroeste 0 -- -- 87
2019-07-02 10:00:00 16.6 0 Calma 4 Oeste 0 -- -- 93
2019-07-02 09:00:00 15.4 2 Noroeste 4 Noroeste 0 -- -- 100
2019-07-02 08:00:00 14.8 0 Calma -- -- 0.2 -- -- 100
2019-07-02 07:00:00 14.6 0 Calma -- -- 0 -- -- 100
2019-07-02 06:00:00 14.6 0 Calma 0 Calma 0 -- -- 100
2019-07-02 05:00:00 14.6 0 Calma 3 Noroeste 0 -- -- 100
2019-07-02 04:00:00 14.6 2 Noroeste 6 Norte 0 -- -- 99
2019-07-02 03:00:00 14.7 0 Calma 3 Sudoeste 0.2 -- -- 99
2019-07-02 02:00:00 14.9 0 Calma 3 Oeste 0 -- -- 97
2019-07-02 01:00:00 15.1 0 Calma 3 Sudeste 0 -- -- 96
2019-07-02 00:00:00 15.1 0 Calma 2 Sudeste 0 -- -- 95
2019-07-01 23:00:00 15.2 0 Calma 3 Sudoeste 0 -- -- 94
2019-07-01 22:00:00 16.4 2 Oeste 8 Este 0 -- -- 92
2019-07-01 21:00:00 16.7 2 Este 9 Sur 0 -- -- 89
2019-07-01 20:00:00 16.6 4 Sur 17 Oeste 0 -- -- 84
2019-07-01 19:00:00 17.1 6 Sudoeste 13 Oeste 0 -- -- 85
2019-07-01 18:00:00 17.2 4 Sudoeste 13 Oeste 0 -- -- 87
2019-07-01 17:00:00 16.3 5 Oeste 19 Sudoeste 0.4 -- -- 90
2019-07-01 16:00:00 17.9 7 Oeste 18 Oeste 0 -- -- 81
2019-07-01 15:00:00 18.5 6 Oeste 13 Oeste 0 -- -- 78
2019-07-01 14:00:00 18 7 Sudoeste 15 Oeste 0 -- -- 78
2019-07-01 13:00:00 18.4 4 Noroeste 14 Oeste 0 -- -- 77
2019-07-01 12:00:00 18.8 5 Sur 14 Oeste 0 -- -- 80
2019-07-01 11:00:00 16.6 3 Noroeste 9 Noroeste 0 -- -- 93
2019-07-01 10:00:00 15.8 4 Noroeste 8 Norte 0 -- -- 97
2019-07-01 09:00:00 15.2 0 Calma 2 Norte 0 -- -- 98
2019-07-01 08:00:00 15 0 Calma 2 Sudeste 0 -- -- 99
2019-07-01 07:00:00 14.8 0 Calma 3 Sudeste 0 -- -- 99
2019-07-01 06:00:00 14.9 0 Calma 2 Nordeste 0 -- -- 98
2019-07-01 05:00:00 14.9 0 Calma 2 Sur 0 -- -- 99
2019-07-01 04:00:00 15 0 Calma 4 Oeste 0 -- -- 98
2019-07-01 03:00:00 15.2 2 Oeste 6 Noroeste 0 -- -- 98
2019-07-01 02:00:00 15.4 2 Noroeste 5 Oeste 0 -- -- 97
2019-07-01 01:00:00 15.5 2 Oeste 9 Oeste 0 -- -- 98
2019-07-01 00:00:00 15.6 2 Oeste 5 Sudoeste 0 -- -- 98
2019-06-30 23:00:00 15.6 4 Oeste 10 Oeste 0 -- -- 97
2019-06-30 22:00:00 16 3 Noroeste 9 Sudoeste 0.2 -- -- 96
2019-06-30 21:00:00 16 4 Oeste 11 Oeste 0.2 -- -- 96
2019-06-30 20:00:00 16.6 3 Sudoeste 9 Noroeste 0 -- -- 93
2019-06-30 19:00:00 17.5 3 Oeste 12 Noroeste 0 -- -- 89
2019-06-30 18:00:00 18.5 7 Noroeste 17 Noroeste 0 -- -- 86
2019-06-30 17:00:00 20.3 9 Noroeste 23 Noroeste 0 -- -- 81
2019-06-30 16:00:00 23.3 10 Noroeste 19 Noroeste 0 -- -- 75
2019-06-30 15:00:00 23.1 9 Noroeste 22 Noroeste 0 -- -- 72
2019-06-30 14:00:00 24.2 10 Noroeste 19 Norte 0 -- -- 67
2019-06-30 13:00:00 23.6 6 Noroeste 13 Noroeste 0 -- -- 63
2019-06-30 12:00:00 21.8 5 Noroeste 13 Noroeste 0 -- -- 60
2019-06-30 11:00:00 18.2 3 Norte 5 Norte 0 -- -- 67
2019-06-30 10:00:00 15.2 2 Este 6 Nordeste 0 -- -- 79
2019-06-30 09:00:00 12.3 3 Nordeste 5 Nordeste 0 -- -- 94
2019-06-30 08:00:00 10.4 0 Calma 3 Este 0 -- -- 99
2019-06-30 07:00:00 10.6 0 Calma 4 Sudeste 0 -- -- 97
2019-06-30 06:00:00 11.8 3 Sur 6 Sudeste 0 -- -- 97
2019-06-30 05:00:00 13.4 3 Sur 6 Sudeste 0 -- -- 94
2019-06-30 04:00:00 14.9 0 Calma 3 Sudeste 0 -- -- 95
2019-06-30 03:00:00 16.1 0 Calma 4 Sur 0 -- -- 98
2019-06-30 02:00:00 16.3 0 Calma 4 Oeste 0 -- -- 98
2019-06-30 01:00:00 16.3 0 Calma 5 Sur 0 -- -- 98
2019-06-30 00:00:00 16.2 0 Calma 13 Oeste 0 -- -- 98
2019-06-29 23:00:00 16.4 9 Noroeste 16 Noroeste 0 -- -- 98
2019-06-29 22:00:00 16.8 0 Calma 6 Oeste 0 -- -- 96
2019-06-29 21:00:00 17.3 3 Noroeste 10 Noroeste 0 -- -- 93
2019-06-29 20:00:00 18.3 5 Noroeste 23 Noroeste 0 -- -- 89
2019-06-29 19:00:00 21.2 12 Noroeste 24 Norte 0 -- -- 79
2019-06-29 18:00:00 23.7 13 Noroeste 22 Noroeste 0 -- -- 74
2019-06-29 17:00:00 25.2 9 Noroeste 22 Noroeste 0 -- -- 71
2019-06-29 16:00:00 26.3 10 Noroeste 20 Noroeste 0 -- -- 68
2019-06-29 15:00:00 26 9 Noroeste 20 Noroeste 0 -- -- 71
2019-06-29 14:00:00 24.3 10 Noroeste 18 Noroeste 0 -- -- 72
2019-06-29 13:00:00 22 8 Noroeste 21 Norte 0 -- -- 80
2019-06-29 12:00:00 19.4 6 Norte 14 Noroeste 0 -- -- 89
2019-06-29 11:00:00 17 4 Noroeste 11 Norte 0 -- -- 95
2019-06-29 10:00:00 15.6 0 Calma 5 Norte 0 -- -- 99
2019-06-29 09:00:00 14.7 0 Calma 5 Norte 0 -- -- 100
2019-06-29 08:00:00 14.2 2 Noroeste 6 Noroeste 0 -- -- 99
2019-06-29 07:00:00 14.2 2 Este 5 Este 0 -- -- 100
2019-06-29 06:00:00 14 0 Calma 2 Sudeste 0 -- -- 100
2019-06-29 05:00:00 13.7 0 Calma 4 Este 0 -- -- 100
2019-06-29 04:00:00 13.2 0 Calma 3 Nordeste 0 -- -- 100
2019-06-29 03:00:00 12.8 0 Calma 4 Este 0 -- -- 98
2019-06-29 02:00:00 13.3 0 Calma 3 Este 0 -- -- 96
2019-06-29 01:00:00 14.3 0 Calma 3 Sur 0 -- -- 95
2019-06-29 00:00:00 15.2 0 Calma 2 Sudoeste 0 -- -- 92
2019-06-28 23:00:00 16.4 0 Calma 7 Norte 0 -- -- 89
2019-06-28 22:00:00 18.6 3 Noroeste 13 Noroeste 0 -- -- 81
2019-06-28 21:00:00 20.6 7 Noroeste 15 Noroeste 0 -- -- 76
2019-06-28 20:00:00 23.4 6 Noroeste 17 Noroeste 0 -- -- 69
2019-06-28 19:00:00 24.3 7 Noroeste 19 Noroeste 0 -- -- 67
2019-06-28 18:00:00 25.5 9 Noroeste 19 Noroeste 0 -- -- 66
2019-06-28 17:00:00 26.1 11 Noroeste 26 Noroeste 0 -- -- 65
2019-06-28 16:00:00 26.9 10 Noroeste 22 Noroeste 0 -- -- 65
2019-06-28 15:00:00 27.1 10 Noroeste 20 Noroeste 0 -- -- 64
2019-06-28 14:00:00 26.5 10 Noroeste 17 Noroeste 0 -- -- 64
2019-06-28 13:00:00 25.2 6 Noroeste 18 Noroeste 0 -- -- 66
2019-06-28 12:00:00 23.7 6 Oeste 13 Norte 0 -- -- 67
2019-06-28 11:00:00 21.4 3 Norte 7 Noroeste 0 -- -- 78
2019-06-28 10:00:00 18.7 2 Norte 4 Norte 0 -- -- 84
2019-06-28 09:00:00 16.3 2 Norte 6 Este 0 -- -- 96
2019-06-28 08:00:00 14.3 0 Calma 2 Este 0 -- -- 98
2019-06-28 07:00:00 14.4 0 Calma 4 Este 0 -- -- 95
2019-06-28 06:00:00 15.2 2 Este 4 Sudeste 0 -- -- 95
2019-06-28 05:00:00 15.8 0 Calma 2 Sur 0 -- -- 94
2019-06-28 04:00:00 16.1 0 Calma 2 Este 0 -- -- 96
2019-06-28 03:00:00 15.9 0 Calma 4 Este 0 -- -- 95
2019-06-28 02:00:00 15.5 0 Calma 4 Nordeste 0 -- -- 96
2019-06-28 01:00:00 15.5 0 Calma -- -- 0 -- -- 94
2019-06-28 00:00:00 16.1 0 Calma 5 Sudoeste 0 -- -- 92
2019-06-27 23:00:00 17.6 3 Sudoeste 10 Noroeste 0 -- -- 87
2019-06-27 22:00:00 19.3 3 Noroeste 14 Oeste 0 -- -- 82
2019-06-27 21:00:00 21.6 8 Noroeste 23 Noroeste 0 -- -- 80
2019-06-27 20:00:00 24.8 9 Noroeste 23 Noroeste 0 -- -- 72
2019-06-27 19:00:00 26.3 12 Noroeste 27 Noroeste 0 -- -- 69
2019-06-27 18:00:00 29.5 14 Noroeste 28 Nordeste 0 -- -- 61
2019-06-27 17:00:00 36.2 11 Este 26 Este 0 -- -- 31
2019-06-27 16:00:00 35.6 14 Este 32 Nordeste 0 -- -- 36
2019-06-27 15:00:00 35 9 Este 28 Nordeste 0 -- -- 32
2019-06-27 14:00:00 33.6 10 Este 36 Nordeste 0 -- -- 32
2019-06-27 13:00:00 31.7 8 Este 22 Nordeste 0 -- -- 42
2019-06-27 12:00:00 29.5 4 Este 15 Sudeste 0 -- -- 47
2019-06-27 11:00:00 26.1 4 Nordeste 12 Este 0 -- -- 55
2019-06-27 10:00:00 22 4 Sudeste 16 Este 0 -- -- 79
2019-06-27 09:00:00 16.2 6 Este 12 Sudeste 0 -- -- 100
2019-06-27 08:00:00 12.6 0 Calma -- -- 0 -- -- 100
2019-06-27 07:00:00 12.5 0 Calma -- -- 0 -- -- 99
2019-06-27 06:00:00 13 0 Calma -- -- 0 -- -- 98
2019-06-27 05:00:00 13.4 0 Calma 3 Nordeste 0 -- -- 97
2019-06-27 04:00:00 14 0 Calma 3 Este 0 -- -- 97
2019-06-27 03:00:00 14.8 0 Calma 2 Este 0 -- -- 95
2019-06-27 02:00:00 15.6 0 Calma 2 Noroeste 0 -- -- 93
2019-06-27 01:00:00 16.7 0 Calma 4 Sudoeste 0 -- -- 91
2019-06-27 00:00:00 18.3 0 Calma 10 Oeste 0 -- -- 85
2019-06-26 23:00:00 19.8 4 Noroeste 12 Noroeste 0 -- -- 79
2019-06-26 22:00:00 20.6 6 Oeste 17 Oeste 0 -- -- 75
2019-06-26 21:00:00 22.8 5 Oeste 24 Noroeste 0 -- -- 76
2019-06-26 20:00:00 25.8 9 Noroeste 22 Noroeste 0 -- -- 75
2019-06-26 19:00:00 29.2 8 Noroeste 23 Noroeste 0 -- -- 66
2019-06-26 18:00:00 30.9 9 Noroeste 26 Oeste 0 -- -- 60
2019-06-26 17:00:00 34.3 3 Nordeste 21 Este 0 -- -- 43
2019-06-26 16:00:00 33.6 4 Este 28 Nordeste 0 -- -- 37
2019-06-26 15:00:00 32.4 10 Este 30 Nordeste 0 -- -- 39
2019-06-26 14:00:00 31.5 8 Norte 21 Sudoeste 0 -- -- 42
2019-06-26 13:00:00 30 4 Norte 31 Este 0 -- -- 48
2019-06-26 12:00:00 28 11 Este 33 Nordeste 0 -- -- 59
2019-06-26 11:00:00 24.7 10 Este 26 Este 0 -- -- 77
2019-06-26 10:00:00 20.2 10 Este 26 Este 0 -- -- 100
2019-06-26 09:00:00 16 0 Calma 6 Este 0 -- -- 100
2019-06-26 08:00:00 14.9 2 Sudeste 6 Este 0 -- -- 100
2019-06-26 07:00:00 15 2 Este 4 Este 0 -- -- 100
2019-06-26 06:00:00 15.6 0 Calma 3 Sudoeste 0 -- -- 100
2019-06-26 05:00:00 16 0 Calma 4 Este 0 -- -- 100
2019-06-26 04:00:00 16.2 2 Oeste 4 Este 0.8 -- -- 100
2019-06-26 03:00:00 16.2 0 Calma 8 Noroeste 0 -- -- 100
2019-06-26 02:00:00 16.3 4 Noroeste 8 Oeste 0 -- -- 100
2019-06-26 01:00:00 16.4 0 Calma 3 Noroeste 0 -- -- 99
2019-06-26 00:00:00 16.6 0 Calma 4 Oeste 0 -- -- 99
2019-06-25 23:00:00 16.6 0 Calma 3 Sur 0 -- -- 98
2019-06-25 22:00:00 16.8 3 Noroeste 6 Noroeste 0 -- -- 97
2019-06-25 21:00:00 17 2 Noroeste 12 Noroeste 0 -- -- 97
2019-06-25 20:00:00 17.1 6 Noroeste 11 Noroeste 0 -- -- 96
2019-06-25 19:00:00 17.4 4 Noroeste 7 Oeste 0 -- -- 96
2019-06-25 18:00:00 17.2 3 Noroeste 11 Noroeste 0 -- -- 96
2019-06-25 17:00:00 18.1 5 Oeste 17 Noroeste 0 -- -- 93
2019-06-25 16:00:00 19.9 7 Noroeste 23 Noroeste 0 -- -- 86
2019-06-25 15:00:00 21.6 11 Noroeste 24 Noroeste 0 -- -- 80
2019-06-25 14:00:00 20.4 12 Noroeste 22 Noroeste 0 -- -- 85
2019-06-25 13:00:00 18.9 8 Noroeste 18 Oeste 0 -- -- 89
2019-06-25 12:00:00 18.2 7 Noroeste 22 Norte 0 -- -- 90
2019-06-25 11:00:00 18.6 10 Noroeste 19 Noroeste 0 -- -- 90
2019-06-25 10:00:00 17.3 7 Noroeste 13 Noroeste 0 -- -- 95
2019-06-25 09:00:00 15.5 3 Oeste 5 Oeste 0.2 -- -- 100
2019-06-25 08:00:00 14.9 4 Noroeste 8 Noroeste 0 -- -- 100
2019-06-25 07:00:00 14.4 2 Este 5 Nordeste 0 -- -- 100
2019-06-25 06:00:00 14.6 2 Oeste 4 Sur 0 -- -- 100
2019-06-25 05:00:00 14.7 0 Calma 5 Sudoeste 0 -- -- 100
2019-06-25 04:00:00 14.8 3 Noroeste 6 Este 0 -- -- 100
2019-06-25 03:00:00 15 0 Calma 5 Este 0 -- -- 100
2019-06-25 02:00:00 15.2 0 Calma 5 Sudoeste 0 -- -- 100
2019-06-25 01:00:00 15.4 2 Noroeste 5 Noroeste 0.6 -- -- 99
2019-06-25 00:00:00 15.6 2 Sudoeste 5 Norte 0 -- -- 98
2019-06-24 23:00:00 15.8 2 Sur 4 Sudoeste 0 -- -- 97
2019-06-24 22:00:00 16.3 0 Calma 6 Oeste 0 -- -- 95
2019-06-24 21:00:00 17.1 3 Noroeste 7 Noroeste 0 -- -- 92
2019-06-24 20:00:00 18 3 Noroeste 11 Oeste 0 -- -- 87
2019-06-24 19:00:00 18.2 6 Noroeste 12 Noroeste 0 -- -- 88
2019-06-24 18:00:00 18.3 5 Noroeste 10 Noroeste 0 -- -- 90
2019-06-24 17:00:00 18.2 5 Noroeste 14 Noroeste 0 -- -- 89
2019-06-24 16:00:00 20.2 8 Oeste 20 Noroeste 0 -- -- 81
2019-06-24 15:00:00 22.3 10 Noroeste 17 Noroeste 0 -- -- 82
2019-06-24 14:00:00 19.5 5 Noroeste 10 Noroeste 0 -- -- 84
2019-06-24 13:00:00 18.6 4 Noroeste 9 Noroeste 0 -- -- 85
2019-06-24 12:00:00 17.4 4 Norte 12 Noroeste 0 -- -- 89
2019-06-24 11:00:00 15.8 3 Noroeste 6 Noroeste 0 -- -- 95
2019-06-24 10:00:00 14.7 3 Sur 10 Nordeste 0 -- -- 98
2019-06-24 09:00:00 14 3 Sur 8 Norte 0 -- -- 99
2019-06-24 08:00:00 13.5 2 Sudeste 6 Noroeste 0 -- -- 99
2019-06-24 07:00:00 13.5 2 Sudoeste 8 Nordeste 0 -- -- 99
2019-06-24 06:00:00 13.7 2 Sudeste 5 Sur 0 -- -- 98
2019-06-24 05:00:00 14.2 0 Calma 4 Sudoeste 0 -- -- 97
2019-06-24 04:00:00 14.8 0 Calma 4 Oeste 0 -- -- 97
2019-06-24 03:00:00 14.7 0 Calma 4 Nordeste 0 -- -- 97
2019-06-24 02:00:00 14.6 0 Calma 4 Noroeste 0 -- -- 97
2019-06-24 01:00:00 14.3 0 Calma 3 Oeste 0 -- -- 97
2019-06-24 00:00:00 14.4 0 Calma 4 Sur 0 -- -- 95
2019-06-23 23:00:00 15.2 2 Sudoeste 5 Noroeste 0 -- -- 93
2019-06-23 22:00:00 16.3 0 Calma 6 Noroeste 0 -- -- 88
2019-06-23 21:00:00 17.3 3 Noroeste 9 Noroeste 0 -- -- 83
2019-06-23 20:00:00 18.1 5 Noroeste 14 Noroeste 0 -- -- 80
2019-06-23 19:00:00 19.5 7 Noroeste 21 Noroeste 0 -- -- 77
2019-06-23 18:00:00 21.1 6 Noroeste 15 Noroeste 0 -- -- 77
2019-06-23 17:00:00 22.4 5 Noroeste 13 Noroeste 0 -- -- 72
2019-06-23 16:00:00 20.3 4 Noroeste 17 Noroeste 0 -- -- 75
2019-06-23 15:00:00 21.1 7 Noroeste 18 Noroeste 0 -- -- 74
2019-06-23 14:00:00 22.1 8 Noroeste 18 Noroeste 0 -- -- 70
2019-06-23 13:00:00 20.7 4 Sudeste 10 Nordeste 0 -- -- 77
2019-06-23 12:00:00 18.9 0 Calma 6 Noroeste 0 -- -- 79
2019-06-23 11:00:00 18.3 2 Oeste 9 Norte 0 -- -- 80
2019-06-23 10:00:00 17.5 0 Calma 4 Oeste 0 -- -- 84
2019-06-23 09:00:00 16.3 3 Nordeste 7 Este 0 -- -- 87
2019-06-23 08:00:00 13.7 3 Sudeste 6 Oeste 0 -- -- 93
2019-06-23 07:00:00 14.1 3 Oeste 10 Sudeste 0 -- -- 86
2019-06-23 06:00:00 16 5 Sudeste 15 Este 0 -- -- 74
2019-06-23 05:00:00 16.2 0 Calma 11 Sur 0 -- -- 84
2019-06-23 04:00:00 17.1 4 Sudeste 13 Este 0 -- -- 79
2019-06-23 03:00:00 14.5 0 Calma 5 Este 0 -- -- 94
2019-06-23 02:00:00 14.9 0 Calma 4 Este 0 -- -- 91
2019-06-23 01:00:00 15.7 0 Calma 4 Este 0 -- -- 92
2019-06-23 00:00:00 16.6 2 Este 3 Este 0 -- -- 90
2019-06-22 23:00:00 18 2 Este 4 Este 0 -- -- 87
2019-06-22 22:00:00 19.3 0 Calma 3 Este 0 -- -- 83
2019-06-22 21:00:00 21.1 0 Calma 5 Noroeste 0 -- -- 80
2019-06-22 20:00:00 22.9 3 Oeste 12 Oeste 0 -- -- 69
2019-06-22 19:00:00 25.9 5 Oeste 16 Oeste 0 -- -- 59
2019-06-22 18:00:00 27.1 8 Oeste 15 Oeste 0 -- -- 56
2019-06-22 17:00:00 27.8 6 Este 14 Este 0 -- -- 43
2019-06-22 16:00:00 26.1 3 Sur 8 Sudoeste 0 -- -- 59
2019-06-22 15:00:00 25.2 2 Sur 8 Sur 0 -- -- 65
2019-06-22 14:00:00 25.2 2 Noroeste 11 Noroeste 0 -- -- 48
2019-06-22 13:00:00 24.1 2 Noroeste 17 Este 0 -- -- 66
2019-06-22 12:00:00 23.4 3 Norte 19 Nordeste 0 -- -- 57
2019-06-22 11:00:00 20.4 2 Sur 6 Este 0 -- -- 63
2019-06-22 10:00:00 16.6 3 Noroeste 6 Norte 0 -- -- 86
2019-06-22 09:00:00 12.4 2 Noroeste 4 Oeste 0 -- -- 98
2019-06-22 08:00:00 10.1 0 Calma 6 Noroeste 0 -- -- 98
2019-06-22 07:00:00 9.8 3 Oeste 23 Nordeste 0 -- -- 92
2019-06-22 06:00:00 12.5 9 Este 25 Nordeste 0 -- -- 78
2019-06-22 05:00:00 10.6 7 Este 23 Nordeste 0 -- -- 96
2019-06-22 04:00:00 9.1 2 Sudoeste 7 Oeste 0 -- -- 100
2019-06-22 03:00:00 10.2 2 Oeste 5 Nordeste 0 -- -- 99
2019-06-22 02:00:00 10.7 0 Calma 4 Este 0 -- -- 99
2019-06-22 01:00:00 10.8 0 Calma 5 Este 0 -- -- 97
2019-06-22 00:00:00 12.5 0 Calma 6 Este 0 -- -- 95
2019-06-21 23:00:00 13.4 2 Sudoeste 6 Noroeste 0 -- -- 93
2019-06-21 22:00:00 14 3 Noroeste 10 Noroeste 0 -- -- 90
2019-06-21 21:00:00 14.6 4 Oeste 12 Oeste 0 -- -- 88
2019-06-21 20:00:00 15.4 6 Noroeste 13 Noroeste 0 -- -- 83
2019-06-21 19:00:00 16.2 7 Noroeste 15 Oeste 0 -- -- 82
2019-06-21 18:00:00 17.3 7 Este 16 Este 0 -- -- 75
2019-06-21 17:00:00 17.8 5 Nordeste 13 Este 0 -- -- 71
2019-06-21 16:00:00 18 5 Este 17 Este 0 -- -- 68
2019-06-21 15:00:00 18.3 6 Sur 15 Sudeste 0 -- -- 74
2019-06-21 14:00:00 16.3 3 Sudeste 14 Este 0 -- -- 82
2019-06-21 13:00:00 15.3 5 Este 13 Este 0 -- -- 86
2019-06-21 12:00:00 13.7 3 Noroeste 10 Noroeste 0 -- -- 98
2019-06-21 11:00:00 12.3 4 Noroeste 8 Noroeste 0.2 -- -- 100
2019-06-21 10:00:00 12 5 Noroeste 10 Noroeste 0.4 -- -- 100
2019-06-21 09:00:00 11.9 3 Oeste 6 Oeste 0.2 -- -- 99
2019-06-21 08:00:00 12.3 3 Oeste 8 Norte 0.6 -- -- 100
2019-06-21 07:00:00 12.4 0 Calma 8 Oeste 0.2 -- -- 100
2019-06-21 06:00:00 12.5 0 Calma 6 Norte 0 -- -- 100
2019-06-21 05:00:00 12.5 0 Calma 5 Oeste 1 -- -- 100
2019-06-21 04:00:00 12.5 3 Noroeste 5 Norte 0.2 -- -- 100
2019-06-21 03:00:00 12.5 2 Oeste 5 Oeste 0 -- -- 100
2019-06-21 02:00:00 12.6 0 Calma 4 Noroeste 0.8 -- -- 100
2019-06-21 01:00:00 12.7 0 Calma 6 Noroeste 1.8 -- -- 100
2019-06-21 00:00:00 12.9 0 Calma 5 Oeste 1.2 -- -- 100
2019-06-20 23:00:00 12.9 3 Oeste 6 Oeste 1.2 -- -- 100
2019-06-20 22:00:00 13.2 2 Noroeste 4 Oeste 0 -- -- 100
2019-06-20 21:00:00 13.3 2 Sudoeste 10 Oeste 0.4 -- -- 99
2019-06-20 20:00:00 13.7 3 Oeste 13 Oeste 0 -- -- 98
2019-06-20 19:00:00 14 5 Oeste 11 Oeste 0.2 -- -- 96
2019-06-20 18:00:00 14.3 5 Noroeste 9 Noroeste 0.6 -- -- 98
2019-06-20 17:00:00 14.8 4 Noroeste 11 Noroeste 0 -- -- 96
2019-06-20 16:00:00 15 3 Noroeste 9 Oeste 0 -- -- 96
2019-06-20 15:00:00 15.3 0 Calma 7 Noroeste 0 -- -- 95
2019-06-20 14:00:00 15.2 3 Noroeste 8 Noroeste 0.8 -- -- 98
2019-06-20 13:00:00 15 4 Oeste 9 Oeste 1.2 -- -- 97
2019-06-20 12:00:00 14.9 3 Oeste 8 Noroeste 0 -- -- 97
2019-06-20 11:00:00 14.6 3 Noroeste 9 Noroeste 0.4 -- -- 99
2019-06-20 10:00:00 14.1 3 Noroeste 5 Norte 0 -- -- 98
2019-06-20 09:00:00 13.7 3 Noroeste 5 Noroeste 0 -- -- 100
2019-06-20 08:00:00 13.4 3 Noroeste 5 Noroeste 0 -- -- 100
2019-06-20 07:00:00 13.3 0 Calma 5 Oeste 0.4 -- -- 100
2019-06-20 06:00:00 13.4 2 Oeste 5 Noroeste 0.2 -- -- 100
2019-06-20 05:00:00 13.5 0 Calma 2 Noroeste 0 -- -- 99
2019-06-20 04:00:00 13.5 0 Calma 3 Sudoeste 0 -- -- 99
2019-06-20 03:00:00 13.5 2 Oeste 4 Oeste 0.2 -- -- 99
2019-06-20 02:00:00 13.6 0 Calma 3 Oeste 0 -- -- 99
2019-06-20 01:00:00 13.7 0 Calma 5 Oeste 0.4 -- -- 99
2019-06-20 00:00:00 14 2 Oeste 9 Noroeste 0 -- -- 98
2019-06-19 23:00:00 14.3 3 Noroeste 5 Oeste 2 -- -- 98
2019-06-19 22:00:00 14.4 0 Calma 5 Oeste 0 -- -- 96
2019-06-19 21:00:00 14.6 2 Oeste 7 Oeste 0 -- -- 94
2019-06-19 20:00:00 15.1 5 Noroeste 11 Norte 0 -- -- 91
2019-06-19 19:00:00 15.6 3 Oeste 13 Oeste 0 -- -- 85
2019-06-19 18:00:00 16 6 Oeste 18 Sudoeste 0 -- -- 82
2019-06-19 17:00:00 16.7 5 Oeste 17 Oeste 0 -- -- 82
2019-06-19 16:00:00 17.2 8 Sudoeste 18 Noroeste 0 -- -- 78
2019-06-19 15:00:00 18.1 5 Sudoeste -- -- -- -- -- 79
2019-06-19 14:00:00 19.9 9 Noroeste 17 Noroeste 0 -- -- 75
2019-06-19 13:00:00 20.4 8 Noroeste 17 Noroeste -- -- -- 73
2019-06-19 12:00:00 19.9 8 Noroeste 17 Noroeste 0 -- -- 68
2019-06-19 11:00:00 18.5 3 Noroeste 9 Noroeste 0 -- -- 74
2019-06-19 10:00:00 15.3 0 Calma 5 Nordeste 0 -- -- 89
2019-06-19 09:00:00 13.1 2 Este 6 Nordeste 0 -- -- 93
2019-06-19 08:00:00 10.8 0 Calma 3 Este 0 -- -- 100
2019-06-19 07:00:00 9.8 0 Calma 5 Este 0 -- -- 99
2019-06-19 06:00:00 10 3 Este 7 Este 0 -- -- 98
2019-06-19 05:00:00 10.5 0 Calma 8 Este 0 -- -- 96
2019-06-19 04:00:00 11 3 Este 10 Sur 0 -- -- 95
2019-06-19 03:00:00 11.7 3 Noroeste 6 Nordeste 0 -- -- 92
2019-06-19 02:00:00 11.7 3 Este 7 Sur 0 -- -- 91
2019-06-19 01:00:00 12.7 3 Este 9 Sudoeste 0 -- -- 86
2019-06-19 00:00:00 12.9 4 Sur 8 Sudeste 0 -- -- 86
2019-06-18 23:00:00 14.4 0 Calma 4 Sudoeste 0 -- -- 77
2019-06-18 22:00:00 17.2 3 Oeste 13 Oeste 0 -- -- 67
2019-06-18 21:00:00 -- 7 Oeste 13 Sudoeste 0 -- -- --
2019-06-18 20:00:00 20.2 2 Sudeste 9 Norte 0 -- -- 68
2019-06-18 19:00:00 20.9 4 Noroeste 14 Noroeste 0 -- -- 60
2019-06-18 18:00:00 22.3 6 Noroeste 30 Noroeste 0 -- -- 60
2019-06-18 17:00:00 29.3 12 Noroeste 35 Norte 0 -- -- 28
2019-06-18 16:00:00 29 11 Nordeste 23 Este 0 -- -- 24
2019-06-18 15:00:00 28.4 11 Este 41 Nordeste 0 -- -- 25
2019-06-18 14:00:00 27.7 12 Noroeste 33 Norte 0 -- -- 21
2019-06-18 13:00:00 26.9 6 Sudoeste 38 Noroeste 0 -- -- 29
2019-06-18 12:00:00 26.3 6 Sudeste 24 Este 0 -- -- 30
2019-06-18 11:00:00 23.2 6 Este 17 Este 0 -- -- 41
2019-06-18 10:00:00 18.7 5 Este 18 Este 0 -- -- 68
2019-06-18 09:00:00 12.9 5 Sudeste 12 Este 0 -- -- 92
2019-06-18 08:00:00 9.6 2 Este 5 Sur 0 -- -- 100
2019-06-18 07:00:00 10.1 0 Calma 8 Sudoeste 0 -- -- 99
2019-06-18 06:00:00 10.6 0 Calma 8 Sur 0 -- -- 100
2019-06-18 05:00:00 11.3 2 Oeste 8 Este 0 -- -- 100
2019-06-18 04:00:00 11.9 3 Sur 11 Este 0 -- -- 99
2019-06-18 03:00:00 12.5 4 Norte 8 Sudoeste 0 -- -- 98
2019-06-18 02:00:00 13.9 0 Calma 8 Noroeste 0 -- -- 97
2019-06-18 01:00:00 14.3 3 Sudoeste 9 Sur 0 -- -- 99
2019-06-18 00:00:00 14.3 2 Nordeste 5 Sudeste 0 -- -- 98
2019-06-17 23:00:00 14.7 0 Calma 6 Noroeste 0 -- -- 96
2019-06-17 22:00:00 14.8 6 Oeste 17 Oeste 0 -- -- 96
2019-06-17 21:00:00 15.4 3 Noroeste 19 Oeste 0 -- -- 93
2019-06-17 20:00:00 16.4 6 Noroeste 15 Noroeste 0 -- -- 90
2019-06-17 19:00:00 17.9 6 Noroeste 17 Noroeste 0 -- -- 86
2019-06-17 18:00:00 19.4 8 Noroeste 20 Noroeste 0 -- -- 81
2019-06-17 17:00:00 21.4 12 Noroeste 24 Noroeste 0 -- -- 75
2019-06-17 16:00:00 24.5 13 Noroeste 26 Noroeste 0 -- -- 70
2019-06-17 15:00:00 26.1 9 Noroeste 27 Norte 0 -- -- 54
2019-06-17 14:00:00 27.5 8 Nordeste 27 Nordeste 0 -- -- 59
2019-06-17 13:00:00 23.8 11 Noroeste 17 Norte 0 -- -- 67
2019-06-17 12:00:00 21.7 9 Noroeste 17 Noroeste 0 -- -- 72
2019-06-17 11:00:00 18.8 5 Noroeste 10 Norte 0 -- -- 80
2019-06-17 10:00:00 15.2 2 Norte 5 Este 0 -- -- 96
2019-06-17 09:00:00 11 2 Este 5 Este 0 -- -- 100
2019-06-17 08:00:00 7.7 0 Calma 5 Este 0 -- -- 100
2019-06-17 07:00:00 7.5 2 Sudeste 5 Este 0 -- -- 100
2019-06-17 06:00:00 8 0 Calma 4 Este 0 -- -- 98
2019-06-17 05:00:00 8.7 2 Este 4 Este 0 -- -- 97
2019-06-17 04:00:00 9.9 0 Calma 4 Este 0 -- -- 95
2019-06-17 03:00:00 10.8 2 Este 4 Sudeste 0 -- -- 97
2019-06-17 02:00:00 11.8 3 Este 5 Este 0 -- -- 95
2019-06-17 01:00:00 12.1 2 Este 3 Este 0 -- -- 95
2019-06-17 00:00:00 13 0 Calma 3 Sudoeste 0 -- -- 94
2019-06-16 23:00:00 14.5 0 Calma 9 Noroeste 0 -- -- 92
2019-06-16 22:00:00 16.2 4 Noroeste 10 Noroeste 0 -- -- 87
2019-06-16 21:00:00 17.6 4 Noroeste 15 Noroeste 0 -- -- 82
2019-06-16 20:00:00 18.4 5 Noroeste 15 Noroeste 0 -- -- 80
2019-06-16 19:00:00 19 4 Oeste 19 Oeste 0 -- -- 78
2019-06-16 18:00:00 20.2 8 Noroeste 16 Noroeste 0 -- -- 74
2019-06-16 17:00:00 22.8 8 Noroeste 21 Noroeste 0 -- -- 67
2019-06-16 16:00:00 23.4 8 Noroeste 21 Noroeste 0 -- -- 67
2019-06-16 15:00:00 22.6 8 Noroeste 21 Noroeste 0 -- -- 65
2019-06-16 14:00:00 21.5 12 Noroeste 21 Noroeste 0 -- -- 65
2019-06-16 13:00:00 20.8 8 Noroeste 19 Noroeste 0 -- -- 68
2019-06-16 12:00:00 18.2 9 Noroeste 14 Noroeste 0 -- -- 72
2019-06-16 11:00:00 15.2 5 Norte 11 Norte 0 -- -- 78
2019-06-16 10:00:00 12 3 Nordeste 6 Nordeste 0 -- -- 96
2019-06-16 09:00:00 7.9 2 Nordeste 6 Este 0 -- -- 100
2019-06-16 08:00:00 4.4 0 Calma 4 Este 0 -- -- 100
2019-06-16 07:00:00 4.3 0 Calma 4 Nordeste 0 -- -- 100
2019-06-16 06:00:00 4.7 0 Calma 4 Nordeste 0 -- -- 100
2019-06-16 05:00:00 5.2 2 Este 5 Sudoeste 0 -- -- 100
2019-06-16 04:00:00 5.6 0 Calma 4 Nordeste 0 -- -- 98
2019-06-16 03:00:00 6.7 0 Calma 3 Este 0 -- -- 97
2019-06-16 02:00:00 7.8 0 Calma 2 Sudeste 0 -- -- 95
2019-06-16 01:00:00 9.2 0 Calma 2 Sudoeste 0 -- -- 93
2019-06-16 00:00:00 10.5 0 Calma 3 Sur 0 -- -- 93